createdAt,value
2019-06-27T00:00:49.317Z,19.20
2019-06-27T00:03:18.888Z,19.09
2019-06-27T00:06:06.333Z,19.09
2019-06-27T00:08:35.821Z,18.98
2019-06-27T00:11:05.442Z,18.87
2019-06-27T00:13:35.362Z,18.65
2019-06-27T00:16:04.961Z,18.49
2019-06-27T00:18:34.546Z,18.41
2019-06-27T00:21:04.047Z,18.40
2019-06-27T00:23:34.648Z,18.40
2019-06-27T00:26:04.241Z,18.27
2019-06-27T00:28:33.850Z,18.05
2019-06-27T00:31:03.501Z,18.05
2019-06-27T00:33:33.397Z,17.92
2019-06-27T00:36:02.963Z,17.88
2019-06-27T00:38:32.474Z,17.72
2019-06-27T00:41:02.429Z,17.65
2019-06-27T00:43:32.040Z,17.65
2019-06-27T00:46:01.877Z,17.58
2019-06-27T00:48:31.506Z,17.55
2019-06-27T00:51:02.278Z,17.55
2019-06-27T00:53:32.248Z,17.46
2019-06-27T00:56:01.860Z,17.46
2019-06-27T00:58:31.450Z,17.47
2019-06-27T01:01:01.049Z,17.45
2019-06-27T01:03:30.666Z,17.45
2019-06-27T01:06:00.661Z,17.25
2019-06-27T01:08:30.262Z,17.25
2019-06-27T01:10:59.839Z,17.13
2019-06-27T01:13:30.958Z,17.13
2019-06-27T01:16:00.576Z,17.10
2019-06-27T01:18:30.185Z,17.14
2019-06-27T01:20:59.734Z,17.03
2019-06-27T01:23:29.288Z,17.03
2019-06-27T01:25:58.905Z,16.73
2019-06-27T01:28:28.917Z,16.73
2019-06-27T01:30:58.491Z,16.79
2019-06-27T01:33:28.079Z,16.75
2019-06-27T01:35:57.665Z,16.75
2019-06-27T01:38:27.263Z,16.75
2019-06-27T01:40:56.819Z,16.75
2019-06-27T01:43:26.440Z,16.57
2019-06-27T01:45:57.923Z,16.57
2019-06-27T01:48:28.995Z,16.46
2019-06-27T01:51:01.422Z,16.58
2019-06-27T01:53:33.535Z,16.46
2019-06-27T01:56:03.122Z,16.52
2019-06-27T01:58:32.745Z,16.26
2019-06-27T02:01:02.494Z,16.26
2019-06-27T02:03:32.082Z,16.27
2019-06-27T02:06:01.659Z,16.16
2019-06-27T02:08:31.221Z,16.29
2019-06-27T02:11:00.841Z,16.29
2019-06-27T02:13:30.411Z,16.32
2019-06-27T02:16:00.033Z,16.22
2019-06-27T02:18:29.622Z,16.22
2019-06-27T02:21:01.074Z,16.22
2019-06-27T02:23:30.651Z,16.24
2019-06-27T02:26:00.374Z,16.24
2019-06-27T02:28:31.662Z,16.22
2019-06-27T02:31:01.343Z,16.23
2019-06-27T02:33:31.201Z,16.23
2019-06-27T02:36:02.585Z,16.05
2019-06-27T02:38:32.388Z,16.05
2019-06-27T02:41:02.043Z,15.78
2019-06-27T02:43:32.203Z,15.73
2019-06-27T02:46:01.908Z,15.78
2019-06-27T02:48:31.839Z,15.81
2019-06-27T02:51:02.066Z,15.96
2019-06-27T02:53:32.012Z,15.96
2019-06-27T02:56:01.688Z,15.89
2019-06-27T02:58:32.862Z,15.90
2019-06-27T03:01:03.264Z,15.99
2019-06-27T03:03:33.061Z,15.84
2019-06-27T03:06:02.726Z,15.84
2019-06-27T03:08:34.122Z,15.69
2019-06-27T03:11:03.821Z,15.69
2019-06-27T03:13:33.541Z,15.68
2019-06-27T03:16:04.993Z,15.55
2019-06-27T03:18:35.214Z,15.49
2019-06-27T03:21:05.914Z,15.49
2019-06-27T03:23:35.707Z,15.49
2019-06-27T03:26:05.387Z,15.55
2019-06-27T03:28:50.852Z,15.48
2019-06-27T03:31:07.055Z,15.57
2019-06-27T03:33:36.946Z,15.46
2019-06-27T03:36:06.845Z,15.44
2019-06-27T03:38:37.696Z,15.44
2019-06-27T03:41:07.479Z,15.44
2019-06-27T03:43:37.223Z,15.52
2019-06-27T03:46:08.539Z,15.52
2019-06-27T03:48:38.278Z,15.52
2019-06-27T03:51:08.008Z,15.52
2019-06-27T03:53:37.822Z,15.24
2019-06-27T03:56:07.883Z,15.24
2019-06-27T03:58:37.568Z,15.19
2019-06-27T04:01:07.433Z,15.19
2019-06-27T04:03:42.703Z,14.84
2019-06-27T04:06:09.736Z,15.15
2019-06-27T04:08:39.797Z,15.15
2019-06-27T04:11:09.961Z,15.08
2019-06-27T04:13:39.776Z,15.08
2019-06-27T04:16:09.778Z,14.97
2019-06-27T04:18:39.499Z,14.97
2019-06-27T04:21:09.183Z,14.95
2019-06-27T04:23:39.237Z,14.80
2019-06-27T04:26:10.417Z,14.98
2019-06-27T04:28:40.269Z,14.98
2019-06-27T04:31:10.069Z,15.11
2019-06-27T04:33:40.203Z,15.01
2019-06-27T04:36:12.983Z,15.04
2019-06-27T04:38:46.886Z,15.18
2019-06-27T04:41:20.082Z,15.07
2019-06-27T04:43:49.889Z,15.07
2019-06-27T04:46:19.597Z,15.05
2019-06-27T04:48:49.822Z,15.30
2019-06-27T04:51:19.504Z,15.19
2019-06-27T04:53:49.302Z,15.28
2019-06-27T04:56:20.389Z,15.13
2019-06-27T04:58:50.249Z,15.29
2019-06-27T05:01:21.491Z,15.29
2019-06-27T05:03:51.524Z,15.22
2019-06-27T05:06:21.170Z,15.11
2019-06-27T05:08:51.293Z,15.35
2019-06-27T05:11:21.040Z,15.35
2019-06-27T05:13:50.756Z,15.17
2019-06-27T05:16:21.946Z,15.35
2019-06-27T05:18:52.205Z,15.32
2019-06-27T05:21:27.952Z,15.40
2019-06-27T05:24:12.402Z,15.40
2019-06-27T05:26:45.920Z,15.20
2019-06-27T05:29:15.645Z,15.04
2019-06-27T05:31:47.359Z,15.03
2019-06-27T05:34:18.368Z,15.32
2019-06-27T05:36:48.078Z,15.44
2019-06-27T05:39:17.718Z,15.44
2019-06-27T05:41:50.468Z,15.38
2019-06-27T05:44:18.975Z,15.66
2019-06-27T05:46:48.756Z,15.75
2019-06-27T05:49:19.093Z,15.47
2019-06-27T05:51:49.152Z,15.24
2019-06-27T05:54:18.910Z,15.41
2019-06-27T05:56:48.740Z,15.43
2019-06-27T05:59:20.275Z,15.58
2019-06-27T06:01:53.587Z,15.58
2019-06-27T06:04:27.129Z,15.64
2019-06-27T06:06:58.676Z,15.45
2019-06-27T06:09:32.898Z,15.38
2019-06-27T06:12:01.232Z,15.32
2019-06-27T06:14:31.337Z,15.42
2019-06-27T06:17:01.146Z,15.77
2019-06-27T06:19:35.049Z,15.88
2019-06-27T06:22:04.709Z,16.07
2019-06-27T06:24:34.657Z,16.07
2019-06-27T06:27:05.011Z,16.04
2019-06-27T06:29:34.765Z,15.94
2019-06-27T06:32:04.517Z,16.05
2019-06-27T06:34:35.458Z,16.05
2019-06-27T06:37:08.056Z,16.22
2019-06-27T06:39:36.943Z,16.27
2019-06-27T06:42:06.624Z,16.27
2019-06-27T06:44:36.870Z,16.35
2019-06-27T06:47:07.185Z,16.41
2019-06-27T06:49:37.082Z,16.51
2019-06-27T06:52:07.201Z,16.51
2019-06-27T06:54:36.914Z,16.48
2019-06-27T06:57:06.580Z,16.66
2019-06-27T06:59:36.329Z,16.68
2019-06-27T07:02:06.241Z,16.92
2019-06-27T07:04:36.093Z,16.90
2019-06-27T07:07:06.045Z,16.81
2019-06-27T07:09:36.828Z,16.81
2019-06-27T07:12:06.616Z,17.01
2019-06-27T07:14:37.821Z,17.01
2019-06-27T07:17:25.540Z,17.02
2019-06-27T07:19:57.499Z,17.30
2019-06-27T07:22:26.548Z,17.30
2019-06-27T07:24:57.285Z,17.44
2019-06-27T07:27:30.037Z,17.39
2019-06-27T07:30:06.765Z,17.70
2019-06-27T07:32:36.748Z,17.69
2019-06-27T07:35:06.461Z,17.69
2019-06-27T07:37:37.667Z,17.71
2019-06-27T07:40:08.645Z,17.95
2019-06-27T07:42:38.880Z,18.09
2019-06-27T07:45:08.593Z,17.94
2019-06-27T07:47:38.491Z,17.89
2019-06-27T07:50:08.639Z,17.89
2019-06-27T07:52:38.256Z,18.00
2019-06-27T07:55:08.871Z,18.00
2019-06-27T07:57:40.210Z,18.19
2019-06-27T08:00:10.370Z,18.32
2019-06-27T08:02:40.109Z,18.32
2019-06-27T08:05:10.506Z,18.32
2019-06-27T08:07:41.268Z,18.29
2019-06-27T08:10:13.243Z,18.63
2019-06-27T08:12:43.070Z,18.63
2019-06-27T08:15:12.914Z,18.65
2019-06-27T08:17:42.583Z,18.46
2019-06-27T08:20:13.675Z,18.86
2019-06-27T08:22:43.427Z,18.85
2019-06-27T08:25:14.649Z,18.85
2019-06-27T08:27:46.123Z,19.00
2019-06-27T08:30:15.815Z,19.16
2019-06-27T08:32:45.440Z,19.32
2019-06-27T08:35:15.770Z,19.35
2019-06-27T08:37:45.480Z,19.38
2019-06-27T08:40:15.125Z,19.47
2019-06-27T08:42:45.223Z,19.77
2019-06-27T08:48:04.157Z,19.89
2019-06-27T08:50:34.196Z,19.89
2019-06-27T08:53:21.505Z,20.04
2019-06-27T08:55:53.993Z,20.12
2019-06-27T08:58:24.066Z,19.84
2019-06-27T09:00:53.717Z,20.10
2019-06-27T09:03:23.380Z,20.17
2019-06-27T09:05:53.132Z,20.11
2019-06-27T09:08:25.913Z,20.39
2019-06-27T09:10:58.777Z,20.39
2019-06-27T09:13:28.505Z,20.42
2019-06-27T09:16:00.668Z,20.59
2019-06-27T09:18:30.388Z,20.74
2019-06-27T09:21:01.214Z,20.41
2019-06-27T09:23:30.942Z,20.41
2019-06-27T09:26:01.081Z,20.57
2019-06-27T09:28:33.557Z,20.69
2019-06-27T09:31:03.266Z,20.90
2019-06-27T09:33:33.045Z,20.90
2019-06-27T09:36:02.767Z,20.99
2019-06-27T09:38:32.486Z,21.02
2019-06-27T09:41:02.399Z,21.07
2019-06-27T09:43:32.037Z,21.11
2019-06-27T09:46:02.092Z,21.11
2019-06-27T09:48:31.932Z,21.08
2019-06-27T09:51:01.823Z,21.08
2019-06-27T09:53:31.961Z,21.22
2019-06-27T09:56:02.878Z,21.49
2019-06-27T09:58:32.525Z,21.54
2019-06-27T10:01:05.712Z,21.45
2019-06-27T10:03:35.005Z,21.49
2019-06-27T10:06:04.644Z,21.49
2019-06-27T10:08:34.361Z,21.42
2019-06-27T10:11:04.125Z,21.52
2019-06-27T10:13:33.770Z,21.74
2019-06-27T10:16:03.497Z,21.63
2019-06-27T10:18:33.236Z,21.63
2019-06-27T10:21:03.047Z,21.84
2019-06-27T10:23:32.754Z,21.84
2019-06-27T10:26:02.467Z,21.99
2019-06-27T10:28:32.251Z,21.67
2019-06-27T10:31:01.985Z,21.67
2019-06-27T10:33:31.619Z,22.05
2019-06-27T10:36:01.360Z,22.32
2019-06-27T10:38:30.938Z,22.16
2019-06-27T10:41:02.286Z,22.21
2019-06-27T10:43:31.893Z,22.17
2019-06-27T10:46:01.501Z,22.21
2019-06-27T10:48:31.501Z,22.42
2019-06-27T10:51:02.735Z,22.52
2019-06-27T10:53:33.110Z,22.41
2019-06-27T10:56:02.820Z,22.38
2019-06-27T10:58:33.547Z,22.43
2019-06-27T11:01:06.084Z,22.78
2019-06-27T11:03:38.591Z,22.78
2019-06-27T11:06:08.470Z,22.61
2019-06-27T11:08:38.174Z,22.83
2019-06-27T11:11:07.803Z,22.83
2019-06-27T11:13:38.007Z,22.83
2019-06-27T11:16:08.123Z,23.05
2019-06-27T11:18:37.843Z,23.02
2019-06-27T11:21:08.773Z,23.12
2019-06-27T11:23:40.259Z,23.18
2019-06-27T11:26:09.905Z,23.18
2019-06-27T11:28:39.587Z,23.30
2019-06-27T11:31:11.495Z,23.39
2019-06-27T11:33:41.217Z,23.58
2019-06-27T11:36:11.402Z,23.58
2019-06-27T11:38:41.019Z,23.71
2019-06-27T11:41:12.233Z,23.71
2019-06-27T11:43:42.102Z,24.05
2019-06-27T11:46:11.997Z,23.65
2019-06-27T11:48:41.693Z,23.60
2019-06-27T11:51:11.849Z,23.63
2019-06-27T11:53:41.657Z,23.64
2019-06-27T11:56:11.704Z,23.90
2019-06-27T11:58:42.959Z,23.99
2019-06-27T12:01:12.908Z,23.86
2019-06-27T12:03:49.503Z,24.13
2019-06-27T12:06:14.540Z,24.13
2019-06-27T12:08:44.307Z,24.23
2019-06-27T12:11:15.026Z,24.14
2019-06-27T12:13:44.702Z,24.07
2019-06-27T12:16:14.631Z,24.03
2019-06-27T12:18:44.380Z,23.97
2019-06-27T12:21:14.032Z,24.33
2019-06-27T12:23:44.398Z,24.00
2019-06-27T12:26:15.934Z,24.00
2019-06-27T12:28:45.621Z,24.20
2019-06-27T12:31:20.358Z,24.35
2019-06-27T12:33:46.880Z,24.19
2019-06-27T12:36:16.596Z,24.36
2019-06-27T12:38:46.251Z,24.67
2019-06-27T12:41:17.785Z,24.27
2019-06-27T12:43:50.014Z,24.48
2019-06-27T12:46:19.758Z,24.48
2019-06-27T12:48:51.463Z,24.57
2019-06-27T12:51:21.150Z,24.70
2019-06-27T12:53:55.805Z,24.52
2019-06-27T12:56:24.197Z,24.50
2019-06-27T12:59:11.398Z,24.50
2019-06-27T13:01:41.164Z,24.65
2019-06-27T13:04:22.834Z,24.63
2019-06-27T13:06:43.055Z,24.67
2019-06-27T13:09:12.768Z,24.32
2019-06-27T13:11:42.424Z,24.32
2019-06-27T13:14:13.606Z,24.67
2019-06-27T13:16:43.438Z,24.61
2019-06-27T13:19:13.139Z,24.53
2019-06-27T13:21:42.849Z,24.48
2019-06-27T13:24:12.554Z,24.51
2019-06-27T13:26:43.974Z,24.52
2019-06-27T13:29:14.045Z,24.75
2019-06-27T13:31:43.696Z,24.95
2019-06-27T13:34:13.585Z,24.95
2019-06-27T13:36:43.656Z,25.09
2019-06-27T13:39:31.306Z,24.90
2019-06-27T13:42:14.413Z,24.90
2019-06-27T13:44:46.490Z,25.09
2019-06-27T13:47:19.964Z,25.04
2019-06-27T13:49:49.703Z,24.92
2019-06-27T13:52:21.087Z,25.20
2019-06-27T13:54:50.748Z,25.04
2019-06-27T13:57:20.833Z,25.25
2019-06-27T13:59:50.580Z,25.25
2019-06-27T14:02:20.259Z,25.20
2019-06-27T14:04:57.118Z,25.15
2019-06-27T14:07:21.245Z,25.16
2019-06-27T14:09:56.672Z,25.16
2019-06-27T14:12:26.824Z,25.47
2019-06-27T14:15:14.136Z,25.43
2019-06-27T14:17:45.686Z,25.43
2019-06-27T14:20:15.940Z,24.98
2019-06-27T14:22:45.582Z,25.66
2019-06-27T14:25:15.334Z,25.59
2019-06-27T14:27:47.955Z,25.59
2019-06-27T14:33:21.441Z,25.12
2019-06-27T14:35:51.110Z,25.12
2019-06-27T14:38:20.795Z,25.65
2019-06-27T14:40:50.726Z,25.72
2019-06-27T14:43:20.900Z,25.72
2019-06-27T14:45:50.672Z,25.60
2019-06-27T14:48:20.316Z,25.50
2019-06-27T14:50:50.070Z,25.50
2019-06-27T14:53:20.543Z,25.50
2019-06-27T14:55:50.726Z,25.39
2019-06-27T14:58:20.676Z,25.67
2019-06-27T15:00:50.909Z,25.67
2019-06-27T15:03:20.788Z,25.98
2019-06-27T15:05:50.411Z,25.73
2019-06-27T15:08:20.119Z,25.73
2019-06-27T15:10:49.799Z,26.13
2019-06-27T15:13:19.611Z,25.87
2019-06-27T15:15:49.310Z,25.87
2019-06-27T15:18:19.001Z,25.76
2019-06-27T15:20:48.808Z,25.79
2019-06-27T15:23:18.634Z,25.92
2019-06-27T15:25:48.237Z,26.19
2019-06-27T15:28:17.868Z,25.81
2019-06-27T15:30:47.579Z,25.52
2019-06-27T15:33:17.620Z,25.52
2019-06-27T15:35:52.454Z,25.73
2019-06-27T15:38:18.585Z,25.77
2019-06-27T15:40:48.288Z,25.87
2019-06-27T15:45:46.990Z,25.73
2019-06-27T15:48:17.115Z,26.25
2019-06-27T15:50:49.792Z,26.25
2019-06-27T15:53:19.595Z,26.44
2019-06-27T15:55:49.418Z,26.33
2019-06-27T15:58:19.588Z,26.09
2019-06-27T16:00:49.282Z,26.04
2019-06-27T16:03:18.967Z,26.04
2019-06-27T16:05:49.444Z,25.94
2019-06-27T16:08:19.254Z,26.06
2019-06-27T16:10:48.985Z,25.91
2019-06-27T16:13:18.887Z,25.91
2019-06-27T16:15:49.008Z,25.75
2019-06-27T16:18:19.368Z,25.75
2019-06-27T16:20:49.138Z,25.62
2019-06-27T16:23:22.804Z,25.67
2019-06-27T16:25:52.760Z,25.28
2019-06-27T16:28:27.318Z,25.28
2019-06-27T16:30:57.397Z,25.23
2019-06-27T16:33:27.147Z,25.23
2019-06-27T16:35:57.558Z,25.15
2019-06-27T16:38:27.383Z,25.15
2019-06-27T16:40:57.048Z,25.13
2019-06-27T16:43:26.812Z,25.04
2019-06-27T16:45:56.613Z,25.09
2019-06-27T16:48:27.700Z,25.09
2019-06-27T16:50:57.709Z,25.24
2019-06-27T16:56:51.061Z,25.05
2019-06-27T16:59:20.818Z,25.22
2019-06-27T17:01:50.576Z,25.22
2019-06-27T17:04:20.912Z,25.08
2019-06-27T17:06:52.140Z,24.82
2019-06-27T17:09:21.782Z,25.19
2019-06-27T17:11:52.734Z,25.12
2019-06-27T17:14:22.810Z,24.97
2019-06-27T17:16:52.519Z,25.32
2019-06-27T17:19:23.676Z,25.11
2019-06-27T17:21:55.167Z,25.11
2019-06-27T17:24:27.110Z,25.04
2019-06-27T17:26:56.804Z,25.08
2019-06-27T17:29:26.615Z,25.08
2019-06-27T17:31:56.719Z,24.53
2019-06-27T17:34:26.444Z,24.71
2019-06-27T17:37:03.807Z,24.53
2019-06-27T17:39:33.728Z,24.53
2019-06-27T17:42:03.540Z,24.53
2019-06-27T17:44:35.708Z,24.50
2019-06-27T17:47:05.839Z,24.49
2019-06-27T17:49:35.562Z,24.33
2019-06-27T17:52:06.833Z,23.97
2019-06-27T17:54:40.334Z,24.14
2019-06-27T17:57:12.913Z,23.97
2019-06-27T17:59:46.858Z,24.00
2019-06-27T18:02:16.890Z,23.87
2019-06-27T18:04:48.014Z,23.87
2019-06-27T18:07:17.895Z,23.83
2019-06-27T18:09:47.553Z,23.61
2019-06-27T18:12:19.151Z,23.61
2019-06-27T18:14:49.499Z,23.39
2019-06-27T18:17:32.265Z,23.42
2019-06-27T18:19:52.536Z,23.33
2019-06-27T18:22:24.929Z,23.28
2019-06-27T18:24:54.619Z,23.25
2019-06-27T18:27:24.303Z,23.25
2019-06-27T18:29:54.200Z,23.09
2019-06-27T18:32:24.234Z,23.09
2019-06-27T18:34:53.928Z,22.84
2019-06-27T18:37:29.757Z,22.84
2019-06-27T18:39:56.763Z,22.88
2019-06-27T18:42:26.402Z,22.82
2019-06-27T18:45:01.184Z,22.83
2019-06-27T18:47:34.059Z,22.67
2019-06-27T18:50:04.559Z,22.54
2019-06-27T18:52:35.549Z,22.43
2019-06-27T18:55:05.360Z,22.36
2019-06-27T18:57:35.277Z,22.36
2019-06-27T19:00:05.850Z,22.31
2019-06-27T19:02:35.758Z,22.27
2019-06-27T19:05:10.820Z,22.27
2019-06-27T19:07:45.841Z,22.09
2019-06-27T19:10:11.839Z,22.00
2019-06-27T19:12:41.475Z,21.86
2019-06-27T19:15:12.457Z,21.93
2019-06-27T19:17:44.136Z,21.96
2019-06-27T19:20:25.347Z,21.82
2019-06-27T19:23:01.442Z,21.65
2019-06-27T19:25:34.336Z,21.61
2019-06-27T19:28:04.205Z,21.38
2019-06-27T19:30:33.918Z,21.38
2019-06-27T19:33:03.759Z,21.06
2019-06-27T19:35:33.503Z,21.06
2019-06-27T19:38:03.318Z,20.93
2019-06-27T19:40:36.253Z,20.97
2019-06-27T19:43:05.993Z,20.82
2019-06-27T19:45:36.826Z,20.82
2019-06-27T19:48:07.874Z,20.82
2019-06-27T19:50:37.586Z,20.60
2019-06-27T19:53:09.126Z,20.60
2019-06-27T19:55:39.323Z,20.58
2019-06-27T19:58:09.058Z,20.35
2019-06-27T20:00:40.347Z,20.15
2019-06-27T20:03:10.537Z,20.08
2019-06-27T20:05:40.262Z,19.97
2019-06-27T20:08:19.174Z,20.04
2019-06-27T20:10:42.066Z,19.88
2019-06-27T20:13:12.054Z,19.70
2019-06-27T20:15:42.972Z,19.78
2019-06-27T20:18:14.106Z,19.65
2019-06-27T20:20:43.827Z,19.53
2019-06-27T20:23:15.995Z,19.55
2019-06-27T20:25:50.415Z,19.36
2019-06-27T20:28:26.447Z,19.22
2019-06-27T20:30:57.913Z,19.20
2019-06-27T20:33:47.771Z,19.20
2019-06-27T20:42:45.717Z,18.73
2019-06-27T20:45:15.407Z,18.75
2019-06-27T20:47:45.178Z,18.75
2019-06-27T20:50:14.829Z,18.56
2019-06-27T20:52:44.485Z,18.52
2019-06-27T20:55:14.268Z,18.47
2019-06-27T20:57:44.998Z,18.47
2019-06-27T21:00:15.212Z,18.48
2019-06-27T21:02:45.112Z,18.42
2019-06-27T21:05:16.255Z,18.29
2019-06-27T21:07:46.170Z,18.29
2019-06-27T21:10:17.028Z,18.24
2019-06-27T21:12:46.686Z,18.24
2019-06-27T21:15:16.428Z,18.25
2019-06-27T21:17:46.180Z,18.05
2019-06-27T21:20:16.047Z,18.05
2019-06-27T21:22:46.181Z,17.80
2019-06-27T21:25:15.967Z,17.73
2019-06-27T21:27:45.690Z,17.73
2019-06-27T21:30:15.327Z,17.71
2019-06-27T21:32:48.211Z,17.64
2019-06-27T21:35:18.034Z,17.50
2019-06-27T21:37:47.697Z,17.50
2019-06-27T21:40:17.514Z,17.61
2019-06-27T21:42:47.401Z,17.54
2019-06-27T21:45:17.488Z,17.55
2019-06-27T21:47:48.487Z,17.38
2019-06-27T21:50:20.956Z,17.38
2019-06-27T21:52:50.696Z,17.28
2019-06-27T21:55:20.483Z,17.11
2019-06-27T21:57:50.592Z,17.11
2019-06-27T22:00:21.330Z,17.04
2019-06-27T22:02:51.186Z,16.98
2019-06-27T22:05:21.051Z,16.98
2019-06-27T22:07:53.417Z,16.90
2019-06-27T22:10:23.750Z,16.79
2019-06-27T22:12:53.488Z,16.79
2019-06-27T22:15:23.680Z,16.75
2019-06-27T22:17:54.104Z,16.53
2019-06-27T22:20:41.426Z,16.71
2019-06-27T22:23:11.105Z,16.54
2019-06-27T22:25:41.264Z,16.54
2019-06-27T22:28:13.119Z,16.56
2019-06-27T22:30:42.926Z,16.56
2019-06-27T22:33:12.632Z,16.64
2019-06-27T22:35:42.281Z,16.49
2019-06-27T22:38:30.894Z,16.49
2019-06-27T22:41:19.798Z,16.32
2019-06-27T22:44:09.425Z,16.35
2019-06-27T22:46:58.387Z,16.35
2019-06-27T22:49:31.174Z,16.25
2019-06-27T22:52:15.008Z,16.11
2019-06-27T22:54:46.972Z,15.92
2019-06-27T22:57:17.707Z,15.92
2019-06-27T22:59:48.447Z,15.88
2019-06-27T23:02:18.349Z,15.82
2019-06-27T23:04:50.619Z,15.78
2019-06-27T23:07:20.944Z,15.78
2019-06-27T23:09:56.771Z,15.64
2019-06-27T23:12:22.308Z,15.64
2019-06-27T23:14:53.748Z,15.69
2019-06-27T23:17:23.772Z,15.44
2019-06-27T23:19:54.727Z,15.44
2019-06-27T23:22:42.445Z,15.47
2019-06-27T23:25:13.369Z,15.42
2019-06-27T23:27:43.031Z,15.47
2019-06-27T23:30:12.681Z,15.36
2019-06-27T23:32:42.936Z,15.20
2019-06-27T23:35:12.629Z,15.30
2019-06-27T23:37:42.335Z,15.16
2019-06-27T23:40:14.528Z,15.16
2019-06-27T23:42:43.810Z,15.30
2019-06-27T23:45:14.124Z,15.00
2019-06-27T23:47:44.451Z,14.98
2019-06-27T23:50:15.591Z,14.97
2019-06-27T23:52:46.325Z,14.97
2019-06-27T23:55:16.547Z,14.92
